sensor_id;sensor_type;location;lat;lon;timestamp;temperature;humidity
7445;DHT22;3764;48.126;11.594;2023-07-31T00:02:12;18.20;99.90
7445;DHT22;3764;48.126;11.594;2023-07-31T00:04:39;18.20;99.90
7445;DHT22;3764;48.126;11.594;2023-07-31T00:07:06;18.20;99.90
7445;DHT22;3764;48.126;11.594;2023-07-31T00:09:33;18.20;99.90
7445;DHT22;3764;48.126;11.594;2023-07-31T00:12:00;18.10;99.90
7445;DHT22;3764;48.126;11.594;2023-07-31T00:14:29;18.10;99.90
7445;DHT22;3764;48.126;11.594;2023-07-31T00:16:56;18.00;99.90
7445;DHT22;3764;48.126;11.594;2023-07-31T00:19:23;18.10;99.90
7445;DHT22;3764;48.126;11.594;2023-07-31T00:21:50;18.10;99.90
7445;DHT22;3764;48.126;11.594;2023-07-31T00:24:17;18.10;99.90
7445;DHT22;3764;48.126;11.594;2023-07-31T00:26:44;18.10;99.90
7445;DHT22;3764;48.126;11.594;2023-07-31T00:29:11;18.20;99.90
7445;DHT22;3764;48.126;11.594;2023-07-31T00:31:40;18.20;99.90
7445;DHT22;3764;48.126;11.594;2023-07-31T00:34:07;18.30;99.90
7445;DHT22;3764;48.126;11.594;2023-07-31T00:36:34;18.30;99.90
7445;DHT22;3764;48.126;11.594;2023-07-31T00:39:01;18.30;99.90
7445;DHT22;3764;48.126;11.594;2023-07-31T00:41:30;18.30;99.90
7445;DHT22;3764;48.126;11.594;2023-07-31T00:43:57;18.30;99.90
7445;DHT22;3764;48.126;11.594;2023-07-31T00:46:24;18.40;99.90
7445;DHT22;3764;48.126;11.594;2023-07-31T00:48:52;18.40;99.90
7445;DHT22;3764;48.126;11.594;2023-07-31T00:51:20;18.30;99.90
7445;DHT22;3764;48.126;11.594;2023-07-31T00:53:47;18.30;99.90
7445;DHT22;3764;48.126;11.594;2023-07-31T00:56:14;18.30;99.90
7445;DHT22;3764;48.126;11.594;2023-07-31T00:58:42;18.30;99.90
7445;DHT22;3764;48.126;11.594;2023-07-31T01:01:09;18.20;99.90
7445;DHT22;3764;48.126;11.594;2023-07-31T01:03:36;18.20;99.90
7445;DHT22;3764;48.126;11.594;2023-07-31T01:06:13;18.10;99.90
7445;DHT22;3764;48.126;11.594;2023-07-31T01:08:44;18.10;99.90
7445;DHT22;3764;48.126;11.594;2023-07-31T01:11:19;18.00;99.90
7445;DHT22;3764;48.126;11.594;2023-07-31T01:13:47;18.00;99.90
7445;DHT22;3764;48.126;11.594;2023-07-31T01:16:14;18.00;99.90
7445;DHT22;3764;48.126;11.594;2023-07-31T01:18:41;17.90;99.90
7445;DHT22;3764;48.126;11.594;2023-07-31T01:21:21;17.80;99.90
7445;DHT22;3764;48.126;11.594;2023-07-31T01:26:56;17.70;99.90
7445;DHT22;3764;48.126;11.594;2023-07-31T01:29:32;17.60;99.90
7445;DHT22;3764;48.126;11.594;2023-07-31T01:32:02;17.50;99.90
7445;DHT22;3764;48.126;11.594;2023-07-31T01:34:30;17.50;99.90
7445;DHT22;3764;48.126;11.594;2023-07-31T01:36:58;17.50;99.90
7445;DHT22;3764;48.126;11.594;2023-07-31T01:39:25;17.50;99.90
7445;DHT22;3764;48.126;11.594;2023-07-31T01:41:53;17.60;99.90
7445;DHT22;3764;48.126;11.594;2023-07-31T01:44:20;17.60;99.90
7445;DHT22;3764;48.126;11.594;2023-07-31T01:46:47;17.60;99.90
7445;DHT22;3764;48.126;11.594;2023-07-31T01:49:14;17.60;99.90
7445;DHT22;3764;48.126;11.594;2023-07-31T01:51:41;17.70;99.90
7445;DHT22;3764;48.126;11.594;2023-07-31T01:54:08;17.70;99.90
7445;DHT22;3764;48.126;11.594;2023-07-31T01:56:36;17.60;99.90
7445;DHT22;3764;48.126;11.594;2023-07-31T01:59:05;17.60;99.90
7445;DHT22;3764;48.126;11.594;2023-07-31T02:01:32;17.60;99.90
7445;DHT22;3764;48.126;11.594;2023-07-31T02:03:59;17.50;99.90
7445;DHT22;3764;48.126;11.594;2023-07-31T02:06:26;17.40;99.90
7445;DHT22;3764;48.126;11.594;2023-07-31T02:08:53;17.40;99.90
7445;DHT22;3764;48.126;11.594;2023-07-31T02:11:20;17.30;99.90
7445;DHT22;3764;48.126;11.594;2023-07-31T02:13:47;17.30;99.90
7445;DHT22;3764;48.126;11.594;2023-07-31T02:16:16;17.30;99.90
7445;DHT22;3764;48.126;11.594;2023-07-31T02:18:43;17.30;99.90
7445;DHT22;3764;48.126;11.594;2023-07-31T02:21:10;17.30;99.90
7445;DHT22;3764;48.126;11.594;2023-07-31T02:23:37;17.40;99.90
7445;DHT22;3764;48.126;11.594;2023-07-31T02:26:04;17.30;99.90
7445;DHT22;3764;48.126;11.594;2023-07-31T02:28:31;17.30;99.90
7445;DHT22;3764;48.126;11.594;2023-07-31T02:30:58;17.30;99.90
7445;DHT22;3764;48.126;11.594;2023-07-31T02:33:27;17.30;99.90
7445;DHT22;3764;48.126;11.594;2023-07-31T02:35:54;17.30;99.90
7445;DHT22;3764;48.126;11.594;2023-07-31T02:38:21;17.30;99.90
7445;DHT22;3764;48.126;11.594;2023-07-31T02:40:48;17.30;99.90
7445;DHT22;3764;48.126;11.594;2023-07-31T02:43:15;17.40;99.90
7445;DHT22;3764;48.126;11.594;2023-07-31T02:45:42;17.30;99.90
7445;DHT22;3764;48.126;11.594;2023-07-31T02:48:09;17.40;99.90
7445;DHT22;3764;48.126;11.594;2023-07-31T02:50:37;17.30;99.90
7445;DHT22;3764;48.126;11.594;2023-07-31T02:53:04;17.30;99.90
7445;DHT22;3764;48.126;11.594;2023-07-31T02:55:32;17.30;99.90
7445;DHT22;3764;48.126;11.594;2023-07-31T02:57:59;17.30;99.90
7445;DHT22;3764;48.126;11.594;2023-07-31T03:00:26;17.30;99.90
7445;DHT22;3764;48.126;11.594;2023-07-31T03:02:53;17.20;99.90
7445;DHT22;3764;48.126;11.594;2023-07-31T03:05:20;17.20;99.90
7445;DHT22;3764;48.126;11.594;2023-07-31T03:07:48;17.20;99.90
7445;DHT22;3764;48.126;11.594;2023-07-31T03:10:15;17.20;99.90
7445;DHT22;3764;48.126;11.594;2023-07-31T03:12:46;17.20;99.90
7445;DHT22;3764;48.126;11.594;2023-07-31T03:15:13;17.20;99.90
7445;DHT22;3764;48.126;11.594;2023-07-31T03:17:41;17.20;99.90
7445;DHT22;3764;48.126;11.594;2023-07-31T03:20:08;17.30;99.90
7445;DHT22;3764;48.126;11.594;2023-07-31T03:22:35;17.40;99.90
7445;DHT22;3764;48.126;11.594;2023-07-31T03:25:05;17.40;99.90
7445;DHT22;3764;48.126;11.594;2023-07-31T03:27:33;17.30;99.90
7445;DHT22;3764;48.126;11.594;2023-07-31T03:30:00;17.30;99.90
7445;DHT22;3764;48.126;11.594;2023-07-31T03:32:27;17.20;99.90
7445;DHT22;3764;48.126;11.594;2023-07-31T03:34:54;17.10;99.90
7445;DHT22;3764;48.126;11.594;2023-07-31T03:37:21;17.10;99.90
7445;DHT22;3764;48.126;11.594;2023-07-31T03:39:48;17.00;99.90
7445;DHT22;3764;48.126;11.594;2023-07-31T03:42:17;17.00;99.90
7445;DHT22;3764;48.126;11.594;2023-07-31T03:44:44;17.00;99.90
7445;DHT22;3764;48.126;11.594;2023-07-31T03:47:11;16.90;99.90
7445;DHT22;3764;48.126;11.594;2023-07-31T03:49:38;16.90;99.90
7445;DHT22;3764;48.126;11.594;2023-07-31T03:52:06;16.90;99.90
7445;DHT22;3764;48.126;11.594;2023-07-31T03:54:33;16.90;99.90
7445;DHT22;3764;48.126;11.594;2023-07-31T03:57:00;16.90;99.90
7445;DHT22;3764;48.126;11.594;2023-07-31T03:59:28;16.90;99.90
7445;DHT22;3764;48.126;11.594;2023-07-31T04:01:56;16.90;99.90
7445;DHT22;3764;48.126;11.594;2023-07-31T04:04:22;16.90;99.90
7445;DHT22;3764;48.126;11.594;2023-07-31T04:06:49;16.90;99.90
7445;DHT22;3764;48.126;11.594;2023-07-31T04:09:17;16.90;99.90
7445;DHT22;3764;48.126;11.594;2023-07-31T04:11:44;16.90;99.90
7445;DHT22;3764;48.126;11.594;2023-07-31T04:14:11;16.90;99.90
7445;DHT22;3764;48.126;11.594;2023-07-31T04:16:39;16.90;99.90
7445;DHT22;3764;48.126;11.594;2023-07-31T04:19:06;16.80;99.90
7445;DHT22;3764;48.126;11.594;2023-07-31T04:21:33;16.70;99.90
7445;DHT22;3764;48.126;11.594;2023-07-31T04:24:00;16.70;99.90
7445;DHT22;3764;48.126;11.594;2023-07-31T04:26:27;16.70;99.90
7445;DHT22;3764;48.126;11.594;2023-07-31T04:28:55;16.60;99.90
7445;DHT22;3764;48.126;11.594;2023-07-31T04:31:22;16.60;99.90
7445;DHT22;3764;48.126;11.594;2023-07-31T04:33:50;16.60;99.90
7445;DHT22;3764;48.126;11.594;2023-07-31T04:36:17;16.60;99.90
7445;DHT22;3764;48.126;11.594;2023-07-31T04:38:44;16.60;99.90
7445;DHT22;3764;48.126;11.594;2023-07-31T04:41:11;16.60;99.90
7445;DHT22;3764;48.126;11.594;2023-07-31T04:43:38;16.60;99.90
7445;DHT22;3764;48.126;11.594;2023-07-31T04:46:06;16.60;99.90
7445;DHT22;3764;48.126;11.594;2023-07-31T04:48:33;16.60;99.90
7445;DHT22;3764;48.126;11.594;2023-07-31T04:51:02;16.50;99.90
7445;DHT22;3764;48.126;11.594;2023-07-31T04:53:29;16.50;99.90
7445;DHT22;3764;48.126;11.594;2023-07-31T04:55:56;16.50;99.90
7445;DHT22;3764;48.126;11.594;2023-07-31T04:58:23;16.50;99.90
7445;DHT22;3764;48.126;11.594;2023-07-31T05:00:50;16.50;99.90
7445;DHT22;3764;48.126;11.594;2023-07-31T05:03:17;16.50;99.90
7445;DHT22;3764;48.126;11.594;2023-07-31T05:05:44;16.60;99.90
7445;DHT22;3764;48.126;11.594;2023-07-31T05:08:13;16.60;99.90
7445;DHT22;3764;48.126;11.594;2023-07-31T05:10:40;16.60;99.90
7445;DHT22;3764;48.126;11.594;2023-07-31T05:13:07;16.60;99.90
7445;DHT22;3764;48.126;11.594;2023-07-31T05:15:34;16.60;99.90
7445;DHT22;3764;48.126;11.594;2023-07-31T05:18:01;16.60;99.90
7445;DHT22;3764;48.126;11.594;2023-07-31T05:20:28;16.70;99.90
7445;DHT22;3764;48.126;11.594;2023-07-31T05:22:55;16.70;99.90
7445;DHT22;3764;48.126;11.594;2023-07-31T05:25:24;16.80;99.90
7445;DHT22;3764;48.126;11.594;2023-07-31T05:27:51;16.80;99.90
7445;DHT22;3764;48.126;11.594;2023-07-31T05:30:18;16.90;99.90
7445;DHT22;3764;48.126;11.594;2023-07-31T05:32:47;16.90;99.90
7445;DHT22;3764;48.126;11.594;2023-07-31T05:35:14;17.00;99.90
7445;DHT22;3764;48.126;11.594;2023-07-31T05:37:41;17.10;99.90
7445;DHT22;3764;48.126;11.594;2023-07-31T05:40:09;17.10;99.90
7445;DHT22;3764;48.126;11.594;2023-07-31T05:42:37;17.20;99.90
7445;DHT22;3764;48.126;11.594;2023-07-31T05:45:06;17.20;99.90
7445;DHT22;3764;48.126;11.594;2023-07-31T05:47:33;17.30;99.90
7445;DHT22;3764;48.126;11.594;2023-07-31T05:50:00;17.40;99.90
7445;DHT22;3764;48.126;11.594;2023-07-31T05:52:27;17.40;99.90
7445;DHT22;3764;48.126;11.594;2023-07-31T05:54:55;17.40;99.90
7445;DHT22;3764;48.126;11.594;2023-07-31T05:57:22;17.50;99.90
7445;DHT22;3764;48.126;11.594;2023-07-31T05:59:50;17.50;99.90
7445;DHT22;3764;48.126;11.594;2023-07-31T06:02:19;17.60;99.90
7445;DHT22;3764;48.126;11.594;2023-07-31T06:04:46;17.60;99.90
7445;DHT22;3764;48.126;11.594;2023-07-31T06:07:13;17.60;99.90
7445;DHT22;3764;48.126;11.594;2023-07-31T06:09:40;17.60;99.90
7445;DHT22;3764;48.126;11.594;2023-07-31T06:12:07;17.70;99.90
7445;DHT22;3764;48.126;11.594;2023-07-31T06:14:34;17.70;99.90
7445;DHT22;3764;48.126;11.594;2023-07-31T06:17:03;17.70;99.90
7445;DHT22;3764;48.126;11.594;2023-07-31T06:19:31;17.80;99.90
7445;DHT22;3764;48.126;11.594;2023-07-31T06:21:58;17.80;99.90
7445;DHT22;3764;48.126;11.594;2023-07-31T06:24:25;17.80;99.90
7445;DHT22;3764;48.126;11.594;2023-07-31T06:26:52;17.90;99.90
7445;DHT22;3764;48.126;11.594;2023-07-31T06:29:19;17.90;99.90
7445;DHT22;3764;48.126;11.594;2023-07-31T06:31:46;17.90;99.90
7445;DHT22;3764;48.126;11.594;2023-07-31T06:34:15;18.00;99.90
7445;DHT22;3764;48.126;11.594;2023-07-31T06:36:42;18.00;99.90
7445;DHT22;3764;48.126;11.594;2023-07-31T06:39:11;18.00;99.90
7445;DHT22;3764;48.126;11.594;2023-07-31T06:41:39;18.00;99.90
7445;DHT22;3764;48.126;11.594;2023-07-31T06:44:06;18.10;99.90
7445;DHT22;3764;48.126;11.594;2023-07-31T06:46:33;18.10;99.90
7445;DHT22;3764;48.126;11.594;2023-07-31T06:49:00;18.10;99.90
7445;DHT22;3764;48.126;11.594;2023-07-31T06:51:28;18.10;99.90
7445;DHT22;3764;48.126;11.594;2023-07-31T06:53:57;18.10;99.90
7445;DHT22;3764;48.126;11.594;2023-07-31T06:56:24;18.10;99.90
7445;DHT22;3764;48.126;11.594;2023-07-31T06:58:51;18.20;99.90
7445;DHT22;3764;48.126;11.594;2023-07-31T07:01:19;18.20;99.90
7445;DHT22;3764;48.126;11.594;2023-07-31T07:03:46;18.20;99.90
7445;DHT22;3764;48.126;11.594;2023-07-31T07:06:13;18.20;99.90
7445;DHT22;3764;48.126;11.594;2023-07-31T07:08:41;18.20;99.90
7445;DHT22;3764;48.126;11.594;2023-07-31T07:11:08;18.20;99.90
7445;DHT22;3764;48.126;11.594;2023-07-31T07:13:35;18.20;99.90
7445;DHT22;3764;48.126;11.594;2023-07-31T07:16:02;18.30;99.90
7445;DHT22;3764;48.126;11.594;2023-07-31T07:18:29;18.30;99.90
7445;DHT22;3764;48.126;11.594;2023-07-31T07:20:56;18.30;99.90
7445;DHT22;3764;48.126;11.594;2023-07-31T07:23:24;18.30;99.90
7445;DHT22;3764;48.126;11.594;2023-07-31T07:25:53;18.40;99.90
7445;DHT22;3764;48.126;11.594;2023-07-31T07:28:20;18.30;99.90
7445;DHT22;3764;48.126;11.594;2023-07-31T07:30:51;18.40;99.90
7445;DHT22;3764;48.126;11.594;2023-07-31T07:33:19;18.50;99.90
7445;DHT22;3764;48.126;11.594;2023-07-31T07:35:46;18.50;99.90
7445;DHT22;3764;48.126;11.594;2023-07-31T07:38:14;18.50;99.90
7445;DHT22;3764;48.126;11.594;2023-07-31T07:40:41;18.50;99.90
7445;DHT22;3764;48.126;11.594;2023-07-31T07:43:10;18.60;99.90
7445;DHT22;3764;48.126;11.594;2023-07-31T07:45:37;18.60;99.90
7445;DHT22;3764;48.126;11.594;2023-07-31T07:48:04;18.60;99.90
7445;DHT22;3764;48.126;11.594;2023-07-31T07:50:31;18.70;99.90
7445;DHT22;3764;48.126;11.594;2023-07-31T07:52:59;18.70;99.90
7445;DHT22;3764;48.126;11.594;2023-07-31T07:55:26;18.70;99.90
7445;DHT22;3764;48.126;11.594;2023-07-31T07:57:53;18.80;99.90
7445;DHT22;3764;48.126;11.594;2023-07-31T08:00:22;18.80;99.90
7445;DHT22;3764;48.126;11.594;2023-07-31T08:02:49;18.80;99.90
7445;DHT22;3764;48.126;11.594;2023-07-31T08:05:16;18.80;99.90
7445;DHT22;3764;48.126;11.594;2023-07-31T08:07:44;18.80;99.90
7445;DHT22;3764;48.126;11.594;2023-07-31T08:10:11;18.80;99.90
7445;DHT22;3764;48.126;11.594;2023-07-31T08:12:38;18.90;99.90
7445;DHT22;3764;48.126;11.594;2023-07-31T08:15:06;18.90;99.90
7445;DHT22;3764;48.126;11.594;2023-07-31T08:17:35;19.00;99.90
7445;DHT22;3764;48.126;11.594;2023-07-31T08:20:06;19.00;99.90
7445;DHT22;3764;48.126;11.594;2023-07-31T08:22:33;19.00;99.90
7445;DHT22;3764;48.126;11.594;2023-07-31T08:25:00;19.00;99.90
7445;DHT22;3764;48.126;11.594;2023-07-31T08:27:28;19.00;99.90
7445;DHT22;3764;48.126;11.594;2023-07-31T08:29:56;19.10;99.90
7445;DHT22;3764;48.126;11.594;2023-07-31T08:32:23;19.10;99.90
7445;DHT22;3764;48.126;11.594;2023-07-31T08:34:51;19.10;99.90
7445;DHT22;3764;48.126;11.594;2023-07-31T08:37:18;19.20;99.90
7445;DHT22;3764;48.126;11.594;2023-07-31T08:39:48;19.20;99.90
7445;DHT22;3764;48.126;11.594;2023-07-31T08:42:15;19.20;99.90
7445;DHT22;3764;48.126;11.594;2023-07-31T08:44:43;19.20;99.90
7445;DHT22;3764;48.126;11.594;2023-07-31T08:47:12;19.20;99.90
7445;DHT22;3764;48.126;11.594;2023-07-31T08:49:39;19.30;99.90
7445;DHT22;3764;48.126;11.594;2023-07-31T08:52:10;19.30;99.90
7445;DHT22;3764;48.126;11.594;2023-07-31T08:54:37;19.30;99.90
7445;DHT22;3764;48.126;11.594;2023-07-31T08:57:06;19.30;99.90
7445;DHT22;3764;48.126;11.594;2023-07-31T08:59:35;19.30;99.90
7445;DHT22;3764;48.126;11.594;2023-07-31T09:02:05;19.30;99.90
7445;DHT22;3764;48.126;11.594;2023-07-31T09:04:33;19.30;99.90
7445;DHT22;3764;48.126;11.594;2023-07-31T09:07:03;19.30;99.90
7445;DHT22;3764;48.126;11.594;2023-07-31T09:09:33;19.30;99.90
7445;DHT22;3764;48.126;11.594;2023-07-31T09:12:00;19.30;99.90
7445;DHT22;3764;48.126;11.594;2023-07-31T09:14:28;19.40;99.90
7445;DHT22;3764;48.126;11.594;2023-07-31T09:16:56;19.40;99.90
7445;DHT22;3764;48.126;11.594;2023-07-31T09:19:28;19.50;99.90
7445;DHT22;3764;48.126;11.594;2023-07-31T09:21:56;19.50;99.90
7445;DHT22;3764;48.126;11.594;2023-07-31T09:24:27;19.50;99.90
7445;DHT22;3764;48.126;11.594;2023-07-31T09:26:58;19.50;99.90
7445;DHT22;3764;48.126;11.594;2023-07-31T09:29:26;19.70;99.90
7445;DHT22;3764;48.126;11.594;2023-07-31T09:31:54;19.70;99.90
7445;DHT22;3764;48.126;11.594;2023-07-31T09:34:28;19.70;99.90
7445;DHT22;3764;48.126;11.594;2023-07-31T09:37:00;19.70;99.90
7445;DHT22;3764;48.126;11.594;2023-07-31T09:39:29;19.80;99.90
7445;DHT22;3764;48.126;11.594;2023-07-31T09:41:58;19.80;99.90
7445;DHT22;3764;48.126;11.594;2023-07-31T09:44:38;19.80;99.90
7445;DHT22;3764;48.126;11.594;2023-07-31T09:47:06;19.80;99.90
7445;DHT22;3764;48.126;11.594;2023-07-31T09:49:33;19.80;99.90
7445;DHT22;3764;48.126;11.594;2023-07-31T09:52:00;19.90;99.90
7445;DHT22;3764;48.126;11.594;2023-07-31T09:54:27;19.90;99.90
7445;DHT22;3764;48.126;11.594;2023-07-31T09:56:55;20.00;99.90
7445;DHT22;3764;48.126;11.594;2023-07-31T09:59:24;20.00;99.90
7445;DHT22;3764;48.126;11.594;2023-07-31T10:01:53;20.00;99.90
7445;DHT22;3764;48.126;11.594;2023-07-31T10:04:28;20.10;99.90
7445;DHT22;3764;48.126;11.594;2023-07-31T10:06:57;20.10;99.90
7445;DHT22;3764;48.126;11.594;2023-07-31T10:09:26;20.10;99.90
7445;DHT22;3764;48.126;11.594;2023-07-31T10:12:00;20.10;99.90
7445;DHT22;3764;48.126;11.594;2023-07-31T10:14:31;20.20;99.90
7445;DHT22;3764;48.126;11.594;2023-07-31T10:16:58;20.20;99.90
7445;DHT22;3764;48.126;11.594;2023-07-31T10:19:26;20.30;99.90
7445;DHT22;3764;48.126;11.594;2023-07-31T10:21:54;20.40;99.90
7445;DHT22;3764;48.126;11.594;2023-07-31T10:24:24;20.40;99.90
7445;DHT22;3764;48.126;11.594;2023-07-31T10:26:52;20.40;99.90
7445;DHT22;3764;48.126;11.594;2023-07-31T10:29:20;20.40;99.90
7445;DHT22;3764;48.126;11.594;2023-07-31T10:31:51;20.50;99.90
7445;DHT22;3764;48.126;11.594;2023-07-31T10:34:19;20.50;99.90
7445;DHT22;3764;48.126;11.594;2023-07-31T10:36:46;20.50;99.90
7445;DHT22;3764;48.126;11.594;2023-07-31T10:39:36;20.50;99.90
7445;DHT22;3764;48.126;11.594;2023-07-31T10:42:11;20.60;99.90
7445;DHT22;3764;48.126;11.594;2023-07-31T10:44:43;20.60;99.90
7445;DHT22;3764;48.126;11.594;2023-07-31T10:47:14;20.60;99.90
7445;DHT22;3764;48.126;11.594;2023-07-31T10:49:45;20.70;99.90
7445;DHT22;3764;48.126;11.594;2023-07-31T10:52:13;20.70;99.90
7445;DHT22;3764;48.126;11.594;2023-07-31T10:54:40;20.70;99.90
7445;DHT22;3764;48.126;11.594;2023-07-31T10:57:19;20.70;99.90
7445;DHT22;3764;48.126;11.594;2023-07-31T10:59:47;20.70;99.90
7445;DHT22;3764;48.126;11.594;2023-07-31T11:02:25;20.70;99.90
7445;DHT22;3764;48.126;11.594;2023-07-31T11:05:07;20.70;99.90
7445;DHT22;3764;48.126;11.594;2023-07-31T11:07:47;20.70;99.90
7445;DHT22;3764;48.126;11.594;2023-07-31T11:10:17;20.70;99.90
7445;DHT22;3764;48.126;11.594;2023-07-31T11:12:45;20.80;99.90
7445;DHT22;3764;48.126;11.594;2023-07-31T11:15:13;20.80;99.90
7445;DHT22;3764;48.126;11.594;2023-07-31T11:17:41;20.90;99.90
7445;DHT22;3764;48.126;11.594;2023-07-31T11:20:09;20.90;99.90
7445;DHT22;3764;48.126;11.594;2023-07-31T11:22:36;21.00;99.90
7445;DHT22;3764;48.126;11.594;2023-07-31T11:25:04;21.00;99.90
7445;DHT22;3764;48.126;11.594;2023-07-31T11:27:31;21.00;99.90
7445;DHT22;3764;48.126;11.594;2023-07-31T11:30:06;21.00;99.90
7445;DHT22;3764;48.126;11.594;2023-07-31T11:32:33;21.10;99.90
7445;DHT22;3764;48.126;11.594;2023-07-31T11:35:02;21.10;99.90
7445;DHT22;3764;48.126;11.594;2023-07-31T11:37:39;21.10;99.90
7445;DHT22;3764;48.126;11.594;2023-07-31T11:40:07;21.10;99.90
7445;DHT22;3764;48.126;11.594;2023-07-31T11:42:35;21.20;99.90
7445;DHT22;3764;48.126;11.594;2023-07-31T11:45:03;21.20;99.90
7445;DHT22;3764;48.126;11.594;2023-07-31T11:47:32;21.20;99.90
7445;DHT22;3764;48.126;11.594;2023-07-31T11:50:03;21.30;99.90
7445;DHT22;3764;48.126;11.594;2023-07-31T11:52:33;21.40;99.90
7445;DHT22;3764;48.126;11.594;2023-07-31T11:55:04;21.40;99.90
7445;DHT22;3764;48.126;11.594;2023-07-31T11:57:32;21.40;99.90
7445;DHT22;3764;48.126;11.594;2023-07-31T11:59:59;21.40;99.90
7445;DHT22;3764;48.126;11.594;2023-07-31T12:02:26;21.40;99.90
7445;DHT22;3764;48.126;11.594;2023-07-31T12:04:54;21.50;99.90
7445;DHT22;3764;48.126;11.594;2023-07-31T12:07:24;21.50;99.90
7445;DHT22;3764;48.126;11.594;2023-07-31T12:09:52;21.60;99.90
7445;DHT22;3764;48.126;11.594;2023-07-31T12:12:23;21.70;99.90
7445;DHT22;3764;48.126;11.594;2023-07-31T12:14:50;21.90;99.90
7445;DHT22;3764;48.126;11.594;2023-07-31T12:17:19;22.00;99.90
7445;DHT22;3764;48.126;11.594;2023-07-31T12:19:48;22.00;99.90
7445;DHT22;3764;48.126;11.594;2023-07-31T12:22:15;22.00;99.90
7445;DHT22;3764;48.126;11.594;2023-07-31T12:24:44;22.10;99.90
7445;DHT22;3764;48.126;11.594;2023-07-31T12:27:12;22.10;99.90
7445;DHT22;3764;48.126;11.594;2023-07-31T12:29:42;22.10;99.90
7445;DHT22;3764;48.126;11.594;2023-07-31T12:32:21;22.10;99.90
7445;DHT22;3764;48.126;11.594;2023-07-31T12:34:48;22.20;99.90
7445;DHT22;3764;48.126;11.594;2023-07-31T12:37:15;22.30;99.90
7445;DHT22;3764;48.126;11.594;2023-07-31T12:39:44;22.50;99.90
7445;DHT22;3764;48.126;11.594;2023-07-31T12:42:11;22.50;99.90
7445;DHT22;3764;48.126;11.594;2023-07-31T12:44:38;22.60;99.90
7445;DHT22;3764;48.126;11.594;2023-07-31T12:47:05;22.60;99.90
7445;DHT22;3764;48.126;11.594;2023-07-31T12:49:32;22.60;99.90
7445;DHT22;3764;48.126;11.594;2023-07-31T12:51:59;22.60;99.90
7445;DHT22;3764;48.126;11.594;2023-07-31T12:54:26;22.60;99.90
7445;DHT22;3764;48.126;11.594;2023-07-31T12:56:55;22.60;99.90
7445;DHT22;3764;48.126;11.594;2023-07-31T12:59:22;22.60;99.90
7445;DHT22;3764;48.126;11.594;2023-07-31T13:01:49;22.60;99.90
7445;DHT22;3764;48.126;11.594;2023-07-31T13:04:16;22.50;99.90
7445;DHT22;3764;48.126;11.594;2023-07-31T13:06:43;22.50;99.90
7445;DHT22;3764;48.126;11.594;2023-07-31T13:09:11;22.50;99.90
7445;DHT22;3764;48.126;11.594;2023-07-31T13:11:38;22.50;99.90
7445;DHT22;3764;48.126;11.594;2023-07-31T13:14:06;22.50;99.90
7445;DHT22;3764;48.126;11.594;2023-07-31T13:16:34;22.50;99.90
7445;DHT22;3764;48.126;11.594;2023-07-31T13:19:01;22.60;99.90
7445;DHT22;3764;48.126;11.594;2023-07-31T13:21:28;22.50;99.90
7445;DHT22;3764;48.126;11.594;2023-07-31T13:23:55;22.60;99.90
7445;DHT22;3764;48.126;11.594;2023-07-31T13:26:23;22.50;99.90
7445;DHT22;3764;48.126;11.594;2023-07-31T13:28:50;22.60;99.90
7445;DHT22;3764;48.126;11.594;2023-07-31T13:31:19;22.50;99.90
7445;DHT22;3764;48.126;11.594;2023-07-31T13:33:46;22.50;99.90
7445;DHT22;3764;48.126;11.594;2023-07-31T13:36:13;22.50;99.90
7445;DHT22;3764;48.126;11.594;2023-07-31T13:38:40;22.60;99.90
7445;DHT22;3764;48.126;11.594;2023-07-31T13:41:07;22.50;99.90
7445;DHT22;3764;48.126;11.594;2023-07-31T13:43:34;22.50;99.90
7445;DHT22;3764;48.126;11.594;2023-07-31T13:46:02;22.50;99.90
7445;DHT22;3764;48.126;11.594;2023-07-31T13:48:35;22.50;99.90
7445;DHT22;3764;48.126;11.594;2023-07-31T13:51:02;22.50;99.90
7445;DHT22;3764;48.126;11.594;2023-07-31T13:53:29;22.50;99.90
7445;DHT22;3764;48.126;11.594;2023-07-31T13:55:56;22.50;99.90
7445;DHT22;3764;48.126;11.594;2023-07-31T13:58:23;22.60;99.90
7445;DHT22;3764;48.126;11.594;2023-07-31T14:00:50;22.60;99.90
7445;DHT22;3764;48.126;11.594;2023-07-31T14:03:17;22.70;99.90
7445;DHT22;3764;48.126;11.594;2023-07-31T14:05:46;22.70;99.90
7445;DHT22;3764;48.126;11.594;2023-07-31T14:08:13;22.70;99.90
7445;DHT22;3764;48.126;11.594;2023-07-31T14:10:40;22.70;99.90
7445;DHT22;3764;48.126;11.594;2023-07-31T14:13:07;22.80;99.90
7445;DHT22;3764;48.126;11.594;2023-07-31T14:15:34;22.80;99.90
7445;DHT22;3764;48.126;11.594;2023-07-31T14:18:01;22.90;99.90
7445;DHT22;3764;48.126;11.594;2023-07-31T14:20:30;22.90;99.90
7445;DHT22;3764;48.126;11.594;2023-07-31T14:22:58;22.90;99.90
7445;DHT22;3764;48.126;11.594;2023-07-31T14:25:25;22.90;99.90
7445;DHT22;3764;48.126;11.594;2023-07-31T14:27:52;22.90;99.90
7445;DHT22;3764;48.126;11.594;2023-07-31T14:30:20;22.90;99.90
7445;DHT22;3764;48.126;11.594;2023-07-31T14:32:47;22.90;99.90
7445;DHT22;3764;48.126;11.594;2023-07-31T14:35:14;23.00;99.90
7445;DHT22;3764;48.126;11.594;2023-07-31T14:37:43;23.00;99.90
7445;DHT22;3764;48.126;11.594;2023-07-31T14:40:13;23.00;99.90
7445;DHT22;3764;48.126;11.594;2023-07-31T14:42:40;23.00;99.90
7445;DHT22;3764;48.126;11.594;2023-07-31T14:45:08;23.00;99.90
7445;DHT22;3764;48.126;11.594;2023-07-31T14:47:35;23.10;99.90
7445;DHT22;3764;48.126;11.594;2023-07-31T14:50:04;23.10;99.90
7445;DHT22;3764;48.126;11.594;2023-07-31T14:52:31;23.10;99.90
7445;DHT22;3764;48.126;11.594;2023-07-31T14:54:58;23.10;99.90
7445;DHT22;3764;48.126;11.594;2023-07-31T14:57:27;23.10;99.90
7445;DHT22;3764;48.126;11.594;2023-07-31T14:59:54;23.20;99.90
7445;DHT22;3764;48.126;11.594;2023-07-31T15:02:21;23.20;99.90
7445;DHT22;3764;48.126;11.594;2023-07-31T15:04:48;23.20;99.90
7445;DHT22;3764;48.126;11.594;2023-07-31T15:07:15;23.10;99.90
7445;DHT22;3764;48.126;11.594;2023-07-31T15:09:42;23.10;99.90
7445;DHT22;3764;48.126;11.594;2023-07-31T15:12:09;23.10;99.90
7445;DHT22;3764;48.126;11.594;2023-07-31T15:14:40;23.10;99.90
7445;DHT22;3764;48.126;11.594;2023-07-31T15:17:08;23.00;99.90
7445;DHT22;3764;48.126;11.594;2023-07-31T15:19:35;23.00;99.90
7445;DHT22;3764;48.126;11.594;2023-07-31T15:22:03;23.00;99.90
7445;DHT22;3764;48.126;11.594;2023-07-31T15:24:31;23.00;99.90
7445;DHT22;3764;48.126;11.594;2023-07-31T15:26:58;23.00;99.90
7445;DHT22;3764;48.126;11.594;2023-07-31T15:29:30;23.00;99.90
7445;DHT22;3764;48.126;11.594;2023-07-31T15:31:59;23.00;99.90
7445;DHT22;3764;48.126;11.594;2023-07-31T15:34:26;23.00;99.90
7445;DHT22;3764;48.126;11.594;2023-07-31T15:36:54;23.00;99.90
7445;DHT22;3764;48.126;11.594;2023-07-31T15:39:21;23.00;99.90
7445;DHT22;3764;48.126;11.594;2023-07-31T15:41:48;22.90;99.90
7445;DHT22;3764;48.126;11.594;2023-07-31T15:44:15;22.90;99.90
7445;DHT22;3764;48.126;11.594;2023-07-31T15:46:42;22.80;99.90
7445;DHT22;3764;48.126;11.594;2023-07-31T15:49:10;22.80;99.90
7445;DHT22;3764;48.126;11.594;2023-07-31T15:51:39;22.80;99.90
7445;DHT22;3764;48.126;11.594;2023-07-31T15:54:06;22.80;99.90